Fort Bridger, Wyoming
Current Conditions -  °F | °C
As of 12:35 AM on Wednesday 22 Oct 2014 (Local Time) from KFBR Reporting Station
Clear Clear  
Wind Chill: 29°   Ceiling: Unl
Heat Index: 35°   Visibility: NA
Dew Point: 28°   Wind: 8mph
Humidity: 76%   Direction: 280°W
Pressure: 30.16"   Gusts: NA
Location:  41.32°N, 110.39°W
Report Text: KFBR 220635Z AUTO 28007KT CLR 02/M02 A3016 RMK AO2 T00171021 PWINO
Loading
Personal Weather Stations






























Interactive Weather Map New forecast layout! Learn more

10-Day Weather Forecast

Advertisements
Track Severe Weather on mobile